Terminal Aerodrome Forecast
Issued by NWS Sterling, VA

Current Version | Previous Version | Graphics & Text | Print | Product List | Glossary On
Versions: 1 2 3 4 5 6 7 8 9 10 11 12 13 14 15 16 17 18 19 20 21 22 23 24 25
000
FTUS41 KLWX 202326
TAFIAD
TAF
KIAD 202326Z 2100/2206 19005KT 2SM -TSRA SCT025 BKN050CB
     FM210100 18005KT P6SM VCTS BKN070CB
     FM210300 18005KT P6SM BKN250
     FM210900 20005KT P6SM BKN060
     FM211500 25009KT P6SM BKN050
     FM211800 27008KT P6SM -SHRA BKN050
     FM220000 30006KT P6SM SCT110
     FM220200 33006KT P6SM BKN110=

USA.gov is the U.S. government's official web portal to all federal, state and local government web resources and services.